Time;durP1;ratioP1;P1;durP2;ratioP2;P2;SDS_P1;SDS_P2;PMS_P1;PMS_P2;Temp;Humidity;BMP_temperature;BMP_pressure;BME280_temperature;BME280_humidity;BME280_pressure;Samples;Min_cycle;Max_cycle;Signal;HPM_P1;HPM_P2
2021/07/12 00:02:01;;;;;;;2.80;2.60;;;14.80;99.90;;;;;;5050750;28;20044;-65
2021/07/12 00:04:27;;;;;;;2.50;2.30;;;14.70;99.90;;;;;;5049749;28;20036;-65
2021/07/12 00:06:53;;;;;;;3.20;2.63;;;14.70;99.90;;;;;;5049042;28;20029;-65
2021/07/12 00:09:18;;;;;;;2.95;2.33;;;14.70;99.90;;;;;;5050232;28;20116;-65
2021/07/12 00:11:44;;;;;;;2.90;2.40;;;14.70;99.90;;;;;;5049331;28;20040;-65
2021/07/12 00:14:10;;;;;;;4.68;3.00;;;14.70;99.90;;;;;;5050058;28;20673;-65
2021/07/12 00:16:37;;;;;;;3.10;2.50;;;14.60;99.90;;;;;;5048952;28;20029;-65
2021/07/12 00:19:03;;;;;;;6.75;2.85;;;14.60;99.90;;;;;;5049609;28;20095;-65
2021/07/12 00:21:29;;;;;;;3.05;2.55;;;14.70;99.90;;;;;;5049606;28;20056;-65
2021/07/12 00:23:54;;;;;;;3.22;2.90;;;14.70;99.90;;;;;;5049117;28;20419;-65
2021/07/12 00:26:20;;;;;;;3.17;2.75;;;14.70;99.90;;;;;;5048618;28;20189;-65
2021/07/12 00:28:46;;;;;;;3.13;2.45;;;14.60;99.90;;;;;;5049001;28;20029;-65
2021/07/12 00:31:12;;;;;;;2.88;2.67;;;14.60;99.90;;;;;;5049728;28;20409;-65
2021/07/12 00:33:39;;;;;;;2.72;2.53;;;14.50;99.90;;;;;;5049801;28;20028;-65
2021/07/12 00:36:05;;;;;;;3.70;2.92;;;14.50;99.90;;;;;;5050616;28;20041;-65
2021/07/12 00:38:31;;;;;;;3.70;2.88;;;14.50;99.90;;;;;;5051610;28;20032;-66
2021/07/12 00:40:57;;;;;;;4.28;3.20;;;14.40;99.90;;;;;;5054682;28;20032;-65
2021/07/12 00:43:23;;;;;;;3.38;2.90;;;14.40;99.90;;;;;;5054500;28;20025;-65
2021/07/12 00:45:49;;;;;;;2.70;2.47;;;14.30;99.90;;;;;;5053546;28;20509;-65
2021/07/12 00:48:14;;;;;;;3.35;3.00;;;14.30;99.90;;;;;;5054255;28;20529;-65
2021/07/12 00:50:43;;;;;;;4.22;2.88;;;14.20;99.90;;;;;;5053649;28;20029;-65
2021/07/12 00:53:10;;;;;;;3.25;2.70;;;14.20;99.90;;;;;;5054058;28;20484;-65
2021/07/12 00:55:40;;;;;;;3.47;2.83;;;14.20;99.90;;;;;;5052210;28;20128;-65
2021/07/12 00:58:12;;;;;;;3.30;3.00;;;14.10;99.90;;;;;;5054444;28;20104;-65
2021/07/12 01:00:39;;;;;;;3.53;3.22;;;14.10;99.90;;;;;;5055055;28;20029;-65
2021/07/12 01:03:06;;;;;;;3.55;3.00;;;14.10;99.90;;;;;;5053672;28;20440;-65
2021/07/12 01:05:34;;;;;;;3.10;2.80;;;14.10;99.90;;;;;;5053860;28;20029;-65
2021/07/12 01:08:00;;;;;;;3.45;2.88;;;14.00;99.90;;;;;;5054585;28;20037;-65
2021/07/12 01:10:28;;;;;;;2.97;2.78;;;14.00;99.90;;;;;;5054234;28;20036;-64
2021/07/12 01:12:59;;;;;;;2.95;2.72;;;14.00;99.90;;;;;;5044336;28;20047;-65
2021/07/12 01:15:31;;;;;;;4.30;2.90;;;14.00;99.90;;;;;;5054525;28;20056;-65
2021/07/12 01:18:19;;;;;;;6.32;2.75;;;13.90;99.90;;;;;;5053679;28;20033;-65
2021/07/12 01:21:16;;;;;;;4.03;2.92;;;13.90;99.90;;;;;;5053228;28;20067;-65
2021/07/12 01:24:19;;;;;;;2.97;2.78;;;13.90;99.90;;;;;;5046709;28;20021;-65
2021/07/12 01:26:56;;;;;;;3.67;2.83;;;13.80;99.90;;;;;;5052240;28;20040;-65
2021/07/12 01:29:30;;;;;;;3.50;2.85;;;13.80;99.90;;;;;;5053984;28;20480;-65
2021/07/12 01:32:32;;;;;;;6.07;3.08;;;13.70;99.90;;;;;;5044811;28;20040;-65
2021/07/12 01:35:04;;;;;;;4.45;3.50;;;13.80;99.90;;;;;;5052746;28;20068;-65
2021/07/12 01:38:03;;;;;;;4.03;3.20;;;13.80;99.90;;;;;;5054063;28;20029;-65
2021/07/12 01:40:37;;;;;;;5.28;3.72;;;13.80;99.90;;;;;;5053972;28;20055;-65
2021/07/12 01:43:17;;;;;;;4.57;3.67;;;13.80;99.90;;;;;;5053479;28;20029;-65
2021/07/12 01:46:13;;;;;;;4.07;3.20;;;13.80;99.90;;;;;;5052224;28;20163;-64
2021/07/12 01:49:00;;;;;;;6.20;3.65;;;13.80;99.90;;;;;;5052178;28;20029;-64
2021/07/12 01:51:50;;;;;;;4.40;3.22;;;13.80;99.90;;;;;;5052366;28;20041;-68
2021/07/12 01:54:28;;;;;;;7.15;3.20;;;13.80;99.90;;;;;;5052929;28;20033;-65
2021/07/12 01:56:59;;;;;;;4.95;3.05;;;13.70;99.90;;;;;;5051575;28;20677;-65
2021/07/12 01:59:35;;;;;;;3.92;3.40;;;13.70;99.90;;;;;;5046108;28;20541;-65
2021/07/12 02:02:04;;;;;;;3.70;3.40;;;13.60;99.90;;;;;;5053353;28;20033;-65
2021/07/12 02:04:32;;;;;;;3.08;2.83;;;13.60;99.90;;;;;;5052812;28;20398;-65
2021/07/12 02:06:59;;;;;;;3.70;3.08;;;13.50;99.90;;;;;;5052663;28;20025;-65
2021/07/12 02:09:25;;;;;;;3.13;2.83;;;13.50;99.90;;;;;;5053222;28;20104;-65
2021/07/12 02:11:53;;;;;;;3.03;2.72;;;13.40;99.90;;;;;;5052115;28;20032;-65
2021/07/12 02:14:21;;;;;;;3.60;3.03;;;13.40;99.90;;;;;;5045636;28;20025;-65
2021/07/12 02:16:49;;;;;;;3.97;3.03;;;13.40;99.90;;;;;;5052605;28;20107;-65
2021/07/12 02:19:17;;;;;;;3.60;3.13;;;13.40;99.90;;;;;;5052634;28;20021;-65
2021/07/12 02:21:45;;;;;;;3.35;3.05;;;13.40;99.90;;;;;;5051751;28;20048;-65
2021/07/12 02:24:14;;;;;;;6.35;3.45;;;13.40;99.90;;;;;;5052936;28;20025;-65
2021/07/12 02:26:41;;;;;;;5.10;3.30;;;13.30;99.90;;;;;;5050603;28;20036;-65
2021/07/12 02:29:08;;;;;;;7.72;3.60;;;13.30;99.90;;;;;;5052877;28;20025;-65
2021/07/12 02:31:35;;;;;;;4.63;3.53;;;13.30;99.90;;;;;;5052584;28;20029;-65
2021/07/12 02:34:02;;;;;;;4.63;3.35;;;13.30;99.90;;;;;;5051828;28;20478;-65
2021/07/12 02:36:28;;;;;;;7.05;3.47;;;13.30;99.90;;;;;;5052431;28;20059;-65
2021/07/12 02:38:55;;;;;;;4.47;3.35;;;13.30;99.90;;;;;;5051679;28;20036;-65
2021/07/12 02:41:23;;;;;;;4.75;3.33;;;13.30;99.90;;;;;;5051289;28;20043;-65
2021/07/12 02:43:49;;;;;;;4.35;3.50;;;13.30;99.90;;;;;;5051334;28;20490;-65
2021/07/12 02:46:15;;;;;;;4.93;2.90;;;13.30;99.90;;;;;;5052180;28;20071;-65
2021/07/12 02:48:41;;;;;;;4.03;3.17;;;13.30;99.90;;;;;;5051623;28;20071;-66
2021/07/12 02:51:12;;;;;;;3.25;2.95;;;13.30;99.90;;;;;;5052072;28;20374;-65
2021/07/12 02:53:45;;;;;;;3.50;3.20;;;13.30;99.90;;;;;;5051367;28;20374;-66
2021/07/12 02:56:10;;;;;;;4.35;3.28;;;13.20;99.90;;;;;;5051717;28;20049;-65
2021/07/12 02:58:37;;;;;;;7.22;3.33;;;13.20;99.90;;;;;;5050284;28;20036;-65
2021/07/12 03:01:04;;;;;;;3.50;3.08;;;13.20;99.90;;;;;;5051925;28;20021;-65
2021/07/12 03:03:30;;;;;;;4.50;3.13;;;13.20;99.90;;;;;;5052492;28;20032;-65
2021/07/12 03:06:04;;;;;;;3.40;3.10;;;13.20;99.90;;;;;;5050944;28;20029;-65
2021/07/12 03:08:36;;;;;;;3.63;3.08;;;13.10;99.90;;;;;;5051172;28;20485;-65
2021/07/12 03:11:05;;;;;;;3.40;3.10;;;13.10;99.90;;;;;;5051298;28;20075;-65
2021/07/12 03:13:44;;;;;;;3.22;2.90;;;13.10;99.90;;;;;;5052324;28;20098;-65
2021/07/12 03:16:11;;;;;;;3.40;3.10;;;13.10;99.90;;;;;;5052293;28;20055;-65
2021/07/12 03:18:47;;;;;;;3.58;2.97;;;13.10;99.90;;;;;;5051390;28;20032;-65
2021/07/12 03:21:14;;;;;;;3.47;3.17;;;13.00;99.90;;;;;;5051801;28;20039;-65
2021/07/12 03:23:42;;;;;;;4.93;3.97;;;13.10;99.90;;;;;;5051035;28;20043;-65
2021/07/12 03:26:09;;;;;;;4.40;3.22;;;13.00;99.90;;;;;;5051004;28;20024;-65
2021/07/12 03:28:36;;;;;;;4.25;3.80;;;13.10;99.90;;;;;;5050557;28;20033;-65
2021/07/12 03:31:03;;;;;;;4.00;3.60;;;13.00;99.90;;;;;;5050093;28;20086;-65
2021/07/12 03:33:31;;;;;;;3.58;3.28;;;13.10;99.90;;;;;;5051750;28;20033;-65
2021/07/12 03:35:58;;;;;;;4.53;2.97;;;13.00;99.90;;;;;;5051148;28;20060;-65
2021/07/12 03:38:24;;;;;;;3.70;3.28;;;13.00;99.90;;;;;;5051517;28;20036;-65
2021/07/12 03:40:51;;;;;;;3.85;3.45;;;13.00;99.90;;;;;;5050598;28;20052;-65
2021/07/12 03:43:17;;;;;;;4.00;3.60;;;13.00;99.90;;;;;;5051820;28;20087;-65
2021/07/12 03:45:51;;;;;;;4.50;3.70;;;13.00;99.90;;;;;;5050450;28;20471;-65
2021/07/12 03:48:17;;;;;;;4.13;3.72;;;13.00;99.90;;;;;;5043754;28;20104;-65
2021/07/12 03:50:42;;;;;;;4.57;3.50;;;13.00;99.90;;;;;;5050656;28;20103;-65
2021/07/12 03:53:08;;;;;;;4.35;3.30;;;13.00;99.90;;;;;;5050802;28;20474;-65
2021/07/12 03:55:34;;;;;;;4.15;3.67;;;13.10;99.90;;;;;;5051499;28;20040;-65
2021/07/12 03:58:00;;;;;;;6.15;4.40;;;13.00;99.90;;;;;;5049269;28;20091;-65
2021/07/12 04:00:28;;;;;;;4.35;3.33;;;13.10;99.90;;;;;;5051430;28;20075;-65
2021/07/12 04:02:54;;;;;;;3.92;3.20;;;13.10;99.90;;;;;;5050393;28;20037;-65
2021/07/12 04:05:24;;;;;;;4.13;3.72;;;13.10;99.90;;;;;;5051192;28;20033;-65
2021/07/12 04:07:51;;;;;;;5.75;3.67;;;13.10;99.90;;;;;;5050518;28;20025;-65
2021/07/12 04:10:17;;;;;;;4.15;3.55;;;13.20;99.90;;;;;;5050850;28;20086;-65
2021/07/12 04:12:44;;;;;;;3.47;3.17;;;13.20;99.90;;;;;;5049105;28;20068;-65
2021/07/12 04:15:14;;;;;;;5.00;3.70;;;13.20;99.90;;;;;;5051354;28;20025;-65
2021/07/12 04:17:41;;;;;;;3.78;2.95;;;13.20;99.90;;;;;;5050311;28;20086;-65
2021/07/12 04:20:08;;;;;;;4.18;3.10;;;13.20;99.90;;;;;;5050978;28;20363;-65
2021/07/12 04:22:34;;;;;;;4.10;3.30;;;13.20;99.90;;;;;;5050796;28;20151;-65
2021/07/12 04:25:00;;;;;;;4.70;3.92;;;13.20;99.90;;;;;;5049875;28;20565;-65
2021/07/12 04:27:25;;;;;;;4.85;3.72;;;13.20;99.90;;;;;;5050509;28;20037;-65
2021/07/12 04:29:51;;;;;;;4.03;3.65;;;13.30;99.90;;;;;;5048989;28;20029;-65
2021/07/12 04:32:17;;;;;;;4.40;4.00;;;13.40;99.90;;;;;;5050925;28;20068;-65
2021/07/12 04:34:43;;;;;;;5.30;3.85;;;13.40;99.90;;;;;;5049871;28;20482;-65
2021/07/12 04:37:09;;;;;;;7.35;4.88;;;13.50;99.90;;;;;;5050608;28;20079;-65
2021/07/12 04:39:35;;;;;;;6.25;4.45;;;13.60;99.90;;;;;;5050867;28;20020;-65
2021/07/12 04:42:00;;;;;;;5.38;4.80;;;13.70;99.90;;;;;;5048876;28;20039;-65
2021/07/12 04:44:26;;;;;;;4.32;3.75;;;13.80;99.90;;;;;;5049968;28;20363;-65
2021/07/12 04:46:52;;;;;;;7.07;4.30;;;13.90;99.90;;;;;;5049835;28;20454;-65
2021/07/12 04:49:17;;;;;;;4.32;3.45;;;14.00;99.90;;;;;;5050798;28;20082;-65
2021/07/12 04:51:44;;;;;;;6.45;4.40;;;14.10;99.90;;;;;;5049597;28;20033;-65
2021/07/12 04:54:11;;;;;;;5.70;3.63;;;14.30;99.90;;;;;;5050812;28;20029;-65
2021/07/12 04:56:36;;;;;;;3.72;3.38;;;14.50;99.90;;;;;;5050652;28;20405;-65
2021/07/12 04:59:09;;;;;;;8.23;4.05;;;14.60;99.90;;;;;;5048978;28;20029;-65
2021/07/12 05:01:36;;;;;;;4.00;3.58;;;14.70;99.90;;;;;;5042092;28;20425;-65
2021/07/12 05:04:03;;;;;;;5.75;3.50;;;14.80;99.90;;;;;;5049966;28;20033;-65
2021/07/12 05:06:29;;;;;;;4.10;3.22;;;14.90;99.90;;;;;;5050341;28;20025;-65
2021/07/12 05:08:55;;;;;;;7.13;3.47;;;15.10;99.90;;;;;;5049539;28;20079;-65
2021/07/12 05:11:22;;;;;;;4.60;3.60;;;15.20;99.90;;;;;;5050495;28;20069;-65
2021/07/12 05:13:48;;;;;;;6.25;3.50;;;15.40;99.90;;;;;;5049658;28;20036;-65
2021/07/12 05:16:14;;;;;;;4.60;3.80;;;15.50;99.90;;;;;;5050375;28;20025;-65
2021/07/12 05:18:40;;;;;;;4.28;3.78;;;15.70;99.90;;;;;;5050327;28;20028;-65
2021/07/12 05:21:06;;;;;;;7.53;3.65;;;15.90;99.90;;;;;;5049137;28;20108;-65
2021/07/12 05:23:32;;;;;;;8.70;3.83;;;16.00;99.90;;;;;;5047085;28;20429;-65
2021/07/12 05:25:58;;;;;;;6.72;3.83;;;16.20;99.90;;;;;;5052793;28;20119;-65
2021/07/12 05:28:23;;;;;;;6.20;4.05;;;16.40;99.90;;;;;;5053233;28;20137;-70
2021/07/12 05:30:49;;;;;;;6.47;4.55;;;16.50;99.90;;;;;;5052694;28;20033;-69
2021/07/12 05:33:15;;;;;;;6.63;3.90;;;16.60;99.90;;;;;;5053622;28;20048;-69
2021/07/12 05:35:41;;;;;;;7.88;4.10;;;16.60;99.90;;;;;;5053831;28;20429;-70
2021/07/12 05:38:07;;;;;;;5.63;3.63;;;16.60;99.90;;;;;;5053685;28;20466;-70
2021/07/12 05:40:33;;;;;;;8.13;3.63;;;16.60;99.90;;;;;;5053587;28;20351;-70
2021/07/12 05:43:00;;;;;;;7.47;4.03;;;16.70;99.90;;;;;;5052687;28;20114;-70
2021/07/12 05:45:26;;;;;;;7.55;4.93;;;16.80;99.90;;;;;;5052949;28;20528;-71
2021/07/12 05:47:51;;;;;;;8.25;4.20;;;16.90;99.90;;;;;;5052596;28;20467;-70
2021/07/12 05:50:17;;;;;;;8.23;4.05;;;16.90;99.90;;;;;;5053895;28;20033;-70
2021/07/12 05:52:43;;;;;;;7.57;3.97;;;16.90;99.90;;;;;;5052703;28;20037;-69
2021/07/12 05:55:09;;;;;;;7.22;3.70;;;17.00;99.90;;;;;;5052745;28;20049;-70
2021/07/12 05:57:35;;;;;;;7.70;4.28;;;17.10;99.90;;;;;;5053270;28;20429;-70
2021/07/12 06:00:00;;;;;;;5.97;3.88;;;17.20;99.90;;;;;;5052343;28;20037;-70
2021/07/12 06:02:26;;;;;;;11.85;3.97;;;17.30;99.90;;;;;;5053298;28;20029;-69
2021/07/12 06:04:52;;;;;;;13.32;4.78;;;17.50;99.90;;;;;;5052595;28;20032;-69
2021/07/12 06:07:17;;;;;;;9.25;3.78;;;17.50;99.90;;;;;;5053716;28;20047;-71
2021/07/12 06:09:43;;;;;;;9.45;2.90;;;17.70;99.90;;;;;;5053115;28;20029;-71
2021/07/12 06:12:09;;;;;;;5.47;2.30;;;17.80;99.90;;;;;;5053169;28;20509;-69
2021/07/12 06:14:35;;;;;;;2.83;2.47;;;17.90;99.90;;;;;;5053079;28;20025;-70
2021/07/12 06:17:02;;;;;;;3.35;2.15;;;18.10;99.90;;;;;;5052325;28;20035;-67
2021/07/12 06:19:28;;;;;;;4.60;1.88;;;18.30;99.90;;;;;;5053130;28;20024;-64
2021/07/12 06:21:53;;;;;;;2.08;1.50;;;18.60;99.90;;;;;;5051983;28;20041;-64
2021/07/12 06:24:19;;;;;;;2.47;1.90;;;18.70;99.90;;;;;;5052665;28;20036;-64
2021/07/12 06:26:45;;;;;;;1.95;1.65;;;18.80;99.90;;;;;;5047387;28;20470;-64
2021/07/12 06:29:11;;;;;;;1.75;1.50;;;19.00;99.90;;;;;;5053684;28;20466;-64
2021/07/12 06:31:37;;;;;;;1.92;1.50;;;19.10;99.90;;;;;;5053920;28;20044;-64
2021/07/12 06:34:02;;;;;;;2.05;1.50;;;19.30;99.90;;;;;;5051745;28;20040;-65
2021/07/12 06:36:28;;;;;;;2.60;1.80;;;19.50;99.90;;;;;;5052229;28;20031;-64
2021/07/12 06:38:54;;;;;;;1.55;1.30;;;19.70;99.90;;;;;;5051690;28;20025;-64
2021/07/12 06:41:20;;;;;;;2.65;1.77;;;19.90;99.90;;;;;;5052825;28;20043;-64
2021/07/12 06:43:46;;;;;;;2.80;1.83;;;20.10;99.10;;;;;;5042001;28;20496;-65
2021/07/12 06:46:12;;;;;;;1.70;1.60;;;20.20;98.30;;;;;;5052472;28;20029;-64
2021/07/12 06:48:37;;;;;;;2.17;1.75;;;20.30;97.80;;;;;;5052341;28;20055;-64
2021/07/12 06:51:03;;;;;;;3.58;1.77;;;20.30;96.80;;;;;;5051645;28;20021;-64
2021/07/12 06:53:29;;;;;;;1.77;1.63;;;20.40;96.80;;;;;;5052295;28;20095;-64
2021/07/12 06:55:54;;;;;;;1.70;1.60;;;20.40;96.00;;;;;;5051401;28;20045;-64
2021/07/12 06:58:20;;;;;;;3.33;1.70;;;20.50;95.90;;;;;;5052055;28;20036;-64
2021/07/12 07:00:46;;;;;;;2.65;1.70;;;20.60;96.20;;;;;;5051263;28;20086;-65
2021/07/12 07:03:11;;;;;;;2.00;1.40;;;20.70;95.90;;;;;;5051902;28;20029;-64
2021/07/12 07:05:37;;;;;;;2.97;1.70;;;21.00;94.60;;;;;;5051760;28;20033;-65
2021/07/12 07:08:03;;;;;;;3.80;1.50;;;21.20;93.90;;;;;;5051147;28;20025;-64
2021/07/12 07:10:29;;;;;;;3.13;1.35;;;21.40;93.50;;;;;;5051949;28;20075;-65
2021/07/12 07:12:55;;;;;;;4.47;2.38;;;21.40;93.50;;;;;;5050682;28;20033;-64
2021/07/12 07:15:20;;;;;;;2.35;1.63;;;21.50;93.10;;;;;;5051652;28;20535;-64
2021/07/12 07:17:46;;;;;;;3.58;2.08;;;21.60;92.80;;;;;;5046049;28;20135;-64
2021/07/12 07:20:12;;;;;;;3.33;1.88;;;21.50;93.00;;;;;;5051087;28;20083;-63
2021/07/12 07:22:38;;;;;;;3.95;2.40;;;21.50;92.60;;;;;;5052373;28;20036;-64
2021/07/12 07:25:05;;;;;;;4.13;1.95;;;21.50;92.50;;;;;;5050512;28;20025;-64
2021/07/12 07:27:31;;;;;;;4.50;1.90;;;21.40;92.60;;;;;;5044544;28;20052;-65
2021/07/12 07:29:57;;;;;;;4.18;2.10;;;21.30;92.80;;;;;;5050095;28;20037;-64
2021/07/12 07:32:22;;;;;;;3.30;1.67;;;21.40;93.00;;;;;;5051347;28;20037;-64
2021/07/12 07:34:48;;;;;;;2.45;1.70;;;21.40;93.00;;;;;;5050771;28;20465;-65
2021/07/12 07:37:14;;;;;;;1.73;1.63;;;21.40;93.00;;;;;;5052404;28;20086;-64
2021/07/12 07:39:40;;;;;;;2.00;1.80;;;21.40;92.60;;;;;;5052384;28;20040;-64
2021/07/12 07:42:06;;;;;;;3.03;1.75;;;21.50;92.10;;;;;;5050202;28;20752;-64
2021/07/12 07:44:32;;;;;;;2.15;1.85;;;21.60;91.20;;;;;;5051001;28;20370;-64
2021/07/12 07:46:58;;;;;;;3.55;1.63;;;21.70;90.80;;;;;;5049743;28;20051;-65
2021/07/12 07:49:23;;;;;;;1.85;1.73;;;21.80;90.70;;;;;;5050238;28;20103;-65
2021/07/12 07:51:50;;;;;;;1.92;1.33;;;21.90;91.10;;;;;;5050224;28;20498;-65
2021/07/12 07:54:16;;;;;;;2.40;1.60;;;21.90;91.10;;;;;;5050080;28;20037;-64
2021/07/12 07:56:43;;;;;;;2.03;1.48;;;22.10;90.30;;;;;;5050958;28;20021;-64
2021/07/12 07:59:09;;;;;;;1.88;1.33;;;22.30;88.10;;;;;;5050512;28;20033;-64
2021/07/12 08:01:35;;;;;;;3.35;1.40;;;22.40;88.40;;;;;;5050982;28;20033;-64
2021/07/12 08:04:01;;;;;;;1.50;1.40;;;22.40;87.10;;;;;;5050106;28;20040;-65
2021/07/12 08:06:27;;;;;;;3.38;1.88;;;22.40;87.40;;;;;;5051569;28;20024;-65
2021/07/12 08:08:53;;;;;;;2.42;1.63;;;22.60;87.50;;;;;;5048038;28;20103;-65
2021/07/12 08:11:19;;;;;;;1.30;1.20;;;22.60;86.00;;;;;;5050438;28;20031;-64
2021/07/12 08:13:46;;;;;;;1.70;1.38;;;22.70;84.60;;;;;;5050401;28;20034;-65
2021/07/12 08:16:12;;;;;;;4.05;1.30;;;22.70;85.50;;;;;;5049469;28;20035;-64
2021/07/12 08:18:38;;;;;;;1.77;1.52;;;22.90;85.70;;;;;;5053140;28;20086;-64
2021/07/12 08:21:06;;;;;;;3.63;1.50;;;22.90;82.90;;;;;;5049073;28;20071;-64
2021/07/12 08:23:32;;;;;;;2.78;1.60;;;23.00;82.50;;;;;;5050013;28;20540;-64
2021/07/12 08:25:57;;;;;;;4.45;1.58;;;23.10;82.00;;;;;;5050216;28;20037;-65
2021/07/12 08:28:25;;;;;;;2.00;1.38;;;23.20;81.30;;;;;;5051117;28;20025;-64
2021/07/12 08:30:52;;;;;;;2.42;1.50;;;23.40;80.90;;;;;;5050128;28;20033;-65
2021/07/12 08:33:19;;;;;;;5.85;1.73;;;23.40;79.20;;;;;;5050434;28;20115;-64
2021/07/12 08:35:46;;;;;;;1.65;1.45;;;23.50;80.20;;;;;;5050947;28;20029;-65
2021/07/12 08:38:11;;;;;;;2.17;1.40;;;23.60;78.70;;;;;;5049708;28;20040;-65
2021/07/12 08:40:37;;;;;;;2.70;1.30;;;23.60;78.40;;;;;;5050671;28;20466;-64
2021/07/12 08:43:03;;;;;;;3.67;1.60;;;23.80;76.70;;;;;;5049753;28;20382;-65
2021/07/12 08:45:29;;;;;;;3.72;1.60;;;23.80;76.70;;;;;;5050443;28;20522;-65
2021/07/12 08:47:55;;;;;;;3.03;1.58;;;23.90;76.10;;;;;;5049969;28;20090;-64
2021/07/12 08:50:23;;;;;;;1.73;1.50;;;24.00;76.40;;;;;;5050356;28;20061;-64
2021/07/12 08:52:50;;;;;;;2.78;1.33;;;24.10;74.60;;;;;;5049915;28;20059;-65
2021/07/12 08:55:17;;;;;;;4.57;1.40;;;24.20;75.60;;;;;;5050441;28;20076;-64
2021/07/12 08:58:02;;;;;;;2.95;1.40;;;24.40;74.50;;;;;;5050653;28;20029;-64
2021/07/12 09:00:41;;;;;;;6.35;1.38;;;24.50;74.10;;;;;;5052941;28;20050;-65
2021/07/12 09:03:24;;;;;;;4.38;1.38;;;24.60;72.50;;;;;;5050931;28;20985;-64
2021/07/12 09:05:57;;;;;;;1.63;1.40;;;24.70;72.20;;;;;;5053440;28;20025;-65
2021/07/12 09:09:04;;;;;;;1.80;1.45;;;24.70;72.20;;;;;;5050774;28;20035;-65
2021/07/12 09:11:43;;;;;;;1.30;1.20;;;24.90;69.90;;;;;;5053772;28;20033;-64
2021/07/12 09:14:11;;;;;;;3.65;1.50;;;24.90;70.70;;;;;;5052588;28;20029;-65
2021/07/12 09:16:56;;;;;;;1.83;1.30;;;25.10;70.40;;;;;;5054109;28;20489;-65
2021/07/12 09:19:22;;;;;;;1.50;1.10;;;25.10;69.40;;;;;;5054176;28;20086;-65
2021/07/12 09:22:02;;;;;;;1.63;1.15;;;25.20;68.80;;;;;;5053642;28;20029;-65
2021/07/12 09:24:33;;;;;;;1.48;1.38;;;25.20;68.40;;;;;;5054559;28;20097;-65
2021/07/12 09:27:00;;;;;;;1.60;1.50;;;25.30;67.60;;;;;;5053574;28;20033;-65
2021/07/12 09:29:33;;;;;;;12.45;1.65;;;25.30;68.10;;;;;;5053802;28;20024;-65
2021/07/12 09:31:59;;;;;;;2.72;1.55;;;25.40;68.10;;;;;;5053022;28;20433;-65
2021/07/12 09:34:26;;;;;;;3.42;1.20;;;25.60;67.70;;;;;;5053359;28;20037;-65
2021/07/12 09:36:53;;;;;;;3.45;1.08;;;25.60;66.90;;;;;;5052648;28;20465;-65
2021/07/12 09:39:21;;;;;;;2.63;1.20;;;25.60;66.90;;;;;;5053306;28;20399;-65
2021/07/12 09:41:53;;;;;;;4.75;1.73;;;25.70;66.90;;;;;;5052567;28;20409;-65
2021/07/12 09:44:20;;;;;;;1.13;1.13;;;25.80;67.20;;;;;;5053537;28;20432;-65
2021/07/12 09:46:46;;;;;;;1.63;1.52;;;25.90;66.70;;;;;;5053063;28;20112;-65
2021/07/12 09:49:14;;;;;;;1.60;1.10;;;26.10;66.30;;;;;;5052657;28;20025;-65
2021/07/12 09:51:40;;;;;;;2.47;1.48;;;26.10;65.80;;;;;;5053313;28;20507;-65
2021/07/12 09:54:15;;;;;;;2.72;1.58;;;26.10;66.30;;;;;;5052873;28;20468;-64
2021/07/12 09:56:41;;;;;;;4.80;1.33;;;26.30;66.20;;;;;;5044659;28;20045;-68
2021/07/12 09:59:06;;;;;;;1.58;1.30;;;26.40;65.30;;;;;;5052843;28;20034;-66
2021/07/12 10:01:32;;;;;;;1.70;1.17;;;26.50;64.40;;;;;;5052762;28;20036;-66
2021/07/12 10:04:00;;;;;;;1.88;1.27;;;26.60;64.60;;;;;;5052841;28;20033;-66
2021/07/12 10:06:26;;;;;;;1.70;1.40;;;26.70;64.80;;;;;;5053595;28;20063;-66
2021/07/12 10:08:53;;;;;;;2.53;1.42;;;26.70;63.30;;;;;;5052756;28;20463;-68
2021/07/12 10:11:19;;;;;;;3.50;1.10;;;26.80;63.30;;;;;;5051487;28;20033;-68
2021/07/12 10:13:45;;;;;;;2.72;1.10;;;27.10;63.70;;;;;;5053290;28;20013;-67
2021/07/12 10:16:11;;;;;;;3.50;1.23;;;27.20;62.70;;;;;;5052768;28;20638;-67
2021/07/12 10:18:37;;;;;;;1.60;1.50;;;27.40;61.40;;;;;;5053035;28;20035;-67
2021/07/12 10:21:02;;;;;;;2.03;1.35;;;27.70;61.60;;;;;;5052841;28;20115;-66
2021/07/12 10:23:28;;;;;;;2.95;1.10;;;27.90;59.70;;;;;;5053242;28;20473;-66
2021/07/12 10:25:55;;;;;;;4.75;1.25;;;28.00;59.10;;;;;;5051107;28;20036;-66
2021/07/12 10:28:38;;;;;;;1.48;1.38;;;28.00;58.70;;;;;;5052555;28;20044;-66
2021/07/12 10:31:19;;;;;;;2.95;1.45;;;28.00;59.20;;;;;;5051961;28;20038;-66
2021/07/12 10:33:45;;;;;;;1.45;1.30;;;28.10;58.70;;;;;;5052432;28;20106;-66
2021/07/12 10:36:11;;;;;;;1.75;1.40;;;28.20;58.60;;;;;;5051669;28;20040;-66
2021/07/12 10:38:45;;;;;;;2.22;1.42;;;28.10;57.50;;;;;;5052512;28;20108;-66
2021/07/12 10:41:15;;;;;;;1.55;1.25;;;28.00;58.30;;;;;;5052009;28;20618;-66
2021/07/12 10:43:47;;;;;;;1.65;1.40;;;27.80;58.80;;;;;;5052184;28;20037;-68
2021/07/12 10:46:27;;;;;;;1.42;0.90;;;27.70;59.20;;;;;;5051999;28;20048;-67
2021/07/12 10:48:57;;;;;;;3.50;1.58;;;27.60;59.30;;;;;;5051818;28;20078;-73
2021/07/12 10:51:30;;;;;;;1.30;1.20;;;27.70;59.20;;;;;;5052205;28;20025;-70
2021/07/12 10:53:59;;;;;;;1.55;1.10;;;27.80;58.70;;;;;;5051544;28;20021;-65
2021/07/12 10:56:40;;;;;;;1.20;1.10;;;27.80;59.20;;;;;;5052241;28;20063;-65
2021/07/12 10:59:07;;;;;;;2.47;1.45;;;28.00;58.50;;;;;;5051531;28;20083;-65
2021/07/12 11:01:38;;;;;;;2.10;1.50;;;28.10;58.00;;;;;;5051982;28;20067;-64
2021/07/12 11:04:34;;;;;;;2.40;1.20;;;28.10;55.90;;;;;;5051337;28;20033;-64
2021/07/12 11:07:05;;;;;;;2.03;1.30;;;28.10;55.70;;;;;;5049572;28;20025;-64
2021/07/12 11:09:53;;;;;;;1.27;1.20;;;28.10;55.50;;;;;;5053183;28;20087;-64
2021/07/12 11:12:35;;;;;;;3.15;1.40;;;28.00;57.70;;;;;;5051750;28;20122;-64
2021/07/12 11:15:22;;;;;;;4.80;1.48;;;28.10;56.30;;;;;;5051168;28;20064;-64
2021/07/12 11:18:03;;;;;;;2.80;1.35;;;28.10;57.00;;;;;;5044010;28;20024;-64
2021/07/12 11:20:51;;;;;;;3.30;1.20;;;28.20;56.70;;;;;;5052028;28;20411;-64
2021/07/12 11:23:42;;;;;;;2.17;1.45;;;28.10;56.30;;;;;;5043373;28;20025;-64
2021/07/12 11:26:20;;;;;;;1.48;1.38;;;28.30;56.30;;;;;;5050448;28;20035;-65
2021/07/12 11:28:51;;;;;;;3.13;1.40;;;28.60;55.10;;;;;;5046798;28;20049;-65
2021/07/12 11:31:39;;;;;;;6.05;1.67;;;29.00;55.40;;;;;;5050371;28;20036;-65
2021/07/12 11:34:06;;;;;;;3.20;1.50;;;29.30;54.70;;;;;;5050658;28;20033;-64
2021/07/12 11:36:32;;;;;;;1.48;1.40;;;29.60;53.00;;;;;;5051271;28;20025;-64
2021/07/12 11:38:57;;;;;;;2.38;1.23;;;29.70;51.30;;;;;;5051087;28;20532;-64
2021/07/12 11:41:24;;;;;;;2.25;1.23;;;29.70;51.60;;;;;;5050744;28;20458;-64
2021/07/12 11:44:10;;;;;;;1.30;1.20;;;29.70;52.90;;;;;;5047912;28;20036;-64
2021/07/12 11:46:36;;;;;;;1.58;1.20;;;29.60;52.70;;;;;;5051312;28;20078;-65
2021/07/12 11:49:07;;;;;;;2.47;1.30;;;29.60;53.60;;;;;;5050119;28;20036;-65
2021/07/12 11:51:33;;;;;;;1.50;1.40;;;29.80;52.60;;;;;;5050299;28;20536;-65
2021/07/12 11:53:59;;;;;;;1.73;1.50;;;29.80;53.40;;;;;;5049254;28;20025;-64
2021/07/12 11:56:24;;;;;;;1.50;1.30;;;29.90;53.20;;;;;;5049901;28;20102;-65
2021/07/12 11:59:00;;;;;;;2.50;1.08;;;29.90;52.70;;;;;;5048901;28;20028;-65
2021/07/12 12:01:26;;;;;;;1.23;1.10;;;29.80;53.70;;;;;;5048599;28;20387;-65
2021/07/12 12:04:02;;;;;;;1.25;1.25;;;29.60;52.00;;;;;;5047338;28;20039;-65
2021/07/12 12:06:29;;;;;;;1.10;1.10;;;29.40;52.40;;;;;;5050636;28;20039;-64
2021/07/12 12:09:03;;;;;;;2.85;1.17;;;29.40;52.30;;;;;;5050905;28;20386;-65
2021/07/12 12:11:32;;;;;;;1.13;1.02;;;29.50;52.30;;;;;;5050174;28;22274;-64
2021/07/12 12:13:58;;;;;;;1.13;1.13;;;29.50;51.50;;;;;;5051123;28;20053;-64
2021/07/12 12:16:28;;;;;;;2.33;1.70;;;29.70;52.40;;;;;;5050555;28;20029;-65
2021/07/12 12:18:54;;;;;;;;;;;30.00;52.60;;;;;;5051097;28;20037;-65
2021/07/12 12:21:22;;;;;;;1.88;1.20;;;30.30;51.40;;;;;;5051013;28;19913;-65
2021/07/12 12:23:48;;;;;;;1.40;1.30;;;30.60;50.00;;;;;;5049788;28;20025;-65
2021/07/12 12:26:22;;;;;;;1.45;1.45;;;30.70;50.00;;;;;;5050943;28;20031;-65
2021/07/12 12:29:00;;;;;;;1.60;1.50;;;30.90;50.20;;;;;;5049284;28;20112;-65
2021/07/12 12:31:29;;;;;;;1.55;1.45;;;30.90;49.30;;;;;;5050394;28;20463;-65
2021/07/12 12:34:01;;;;;;;2.20;1.00;;;30.90;49.30;;;;;;5051204;28;20083;-65
2021/07/12 12:36:39;;;;;;;1.33;1.23;;;30.50;49.90;;;;;;5054108;28;20033;-65
2021/07/12 12:39:07;;;;;;;1.40;1.30;;;30.40;49.90;;;;;;5054915;28;20025;-64
2021/07/12 12:41:36;;;;;;;2.20;1.20;;;30.20;50.50;;;;;;5054028;28;20021;-64
2021/07/12 12:44:08;;;;;;;1.33;1.23;;;30.20;52.30;;;;;;5054622;28;20033;-65
2021/07/12 12:46:38;;;;;;;1.45;1.35;;;30.30;51.00;;;;;;5053414;28;20516;-65
2021/07/12 12:49:19;;;;;;;2.10;1.60;;;30.50;50.00;;;;;;5054490;28;20519;-65
2021/07/12 12:52:04;;;;;;;2.45;1.33;;;30.60;49.60;;;;;;5053096;28;20057;-65
2021/07/12 12:54:30;;;;;;;1.50;1.40;;;30.60;49.40;;;;;;5050418;28;20029;-65
2021/07/12 12:56:57;;;;;;;1.52;1.40;;;30.60;49.70;;;;;;5052569;28;20603;-65
2021/07/12 12:59:36;;;;;;;2.08;1.50;;;30.60;50.40;;;;;;5054283;28;20467;-64